<?xml version="1.0" encoding="UTF-8" standalone="no" ?>
<gpx xmlns="http://www.topografix.com/GPX/1/1" xmlns:xsi="http://www.w3.org/2001/XMLSchema-instance" xsi:schemaLocation="http://www.topografix.com/GPX/1/1 http://www.topografix.com/GPX/1/1/gpx.xsd" version="1.1" creator="VisuGPX - https://www.visugpx.com">
  <metadata>
    <name>Arcais_StHilairePalud_18km</name>
    <desc><![CDATA[gnerando idor: 8172215]]></desc>
  </metadata>
  <trk>
    <name><![CDATA[Arçais_StHilairePalud_18km-8172215]]></name>
    <extensions>
      <line xmlns="http://www.topografix.com/GPX/gpx_style/0/2">
        <color>0000FF</color>
        <width>4</width>
      </line>
    </extensions>
    <trkseg>
      <trkpt lat="46.2969" lon="-0.69162">
        <ele>11</ele>
        <time>2023-10-29T17:38:35Z</time>
      </trkpt>
      <trkpt lat="46.295" lon="-0.69136">
        <ele>10</ele>
        <time>2023-10-29T17:42:50Z</time>
      </trkpt>
      <trkpt lat="46.29405" lon="-0.69196">
        <ele>10</ele>
        <time>2023-10-29T17:45:08Z</time>
      </trkpt>
      <trkpt lat="46.29367" lon="-0.69068">
        <ele>11</ele>
        <time>2023-10-29T17:47:16Z</time>
      </trkpt>
      <trkpt lat="46.29067" lon="-0.69063">
        <ele>9</ele>
        <time>2023-10-29T17:53:57Z</time>
      </trkpt>
      <trkpt lat="46.28951" lon="-0.6939">
        <ele>4</ele>
        <time>2023-10-29T17:59:36Z</time>
      </trkpt>
      <trkpt lat="46.28507" lon="-0.69677">
        <ele>8</ele>
        <time>2023-10-29T18:10:25Z</time>
      </trkpt>
      <trkpt lat="46.28474" lon="-0.69844">
        <ele>7</ele>
        <time>2023-10-29T18:13:05Z</time>
      </trkpt>
      <trkpt lat="46.28483" lon="-0.70123">
        <ele>8</ele>
        <time>2023-10-29T18:17:22Z</time>
      </trkpt>
      <trkpt lat="46.28337" lon="-0.70505">
        <ele>6</ele>
        <time>2023-10-29T18:24:05Z</time>
      </trkpt>
      <trkpt lat="46.28254" lon="-0.70651">
        <ele>8</ele>
        <time>2023-10-29T18:26:59Z</time>
      </trkpt>
      <trkpt lat="46.28124" lon="-0.70797">
        <ele>6</ele>
        <time>2023-10-29T18:30:39Z</time>
      </trkpt>
      <trkpt lat="46.2805" lon="-0.70819">
        <ele>7</ele>
        <time>2023-10-29T18:32:20Z</time>
      </trkpt>
      <trkpt lat="46.27999" lon="-0.70917">
        <ele>6</ele>
        <time>2023-10-29T18:34:13Z</time>
      </trkpt>
      <trkpt lat="46.28076" lon="-0.7105">
        <ele>6</ele>
        <time>2023-10-29T18:36:53Z</time>
      </trkpt>
      <trkpt lat="46.28195" lon="-0.71295">
        <ele>3</ele>
        <time>2023-10-29T18:41:29Z</time>
      </trkpt>
      <trkpt lat="46.28275" lon="-0.71484">
        <ele>4</ele>
        <time>2023-10-29T18:44:54Z</time>
      </trkpt>
      <trkpt lat="46.28527" lon="-0.71827">
        <ele>4</ele>
        <time>2023-10-29T18:52:35Z</time>
      </trkpt>
      <trkpt lat="46.28613" lon="-0.71827">
        <ele>4</ele>
        <time>2023-10-29T18:54:30Z</time>
      </trkpt>
      <trkpt lat="46.28782" lon="-0.72136">
        <ele>4</ele>
        <time>2023-10-29T19:00:33Z</time>
      </trkpt>
      <trkpt lat="46.28925" lon="-0.71977">
        <ele>5</ele>
        <time>2023-10-29T19:04:34Z</time>
      </trkpt>
      <trkpt lat="46.29106" lon="-0.72286">
        <ele>6</ele>
        <time>2023-10-29T19:10:48Z</time>
      </trkpt>
      <trkpt lat="46.29402" lon="-0.72728">
        <ele>4</ele>
        <time>2023-10-29T19:20:15Z</time>
      </trkpt>
      <trkpt lat="46.29497" lon="-0.72664">
        <ele>3</ele>
        <time>2023-10-29T19:22:35Z</time>
      </trkpt>
      <trkpt lat="46.29622" lon="-0.72745">
        <ele>5</ele>
        <time>2023-10-29T19:25:38Z</time>
      </trkpt>
      <trkpt lat="46.29687" lon="-0.7284">
        <ele>5</ele>
        <time>2023-10-29T19:27:41Z</time>
      </trkpt>
      <trkpt lat="46.29669" lon="-0.72896">
        <ele>4</ele>
        <time>2023-10-29T19:28:38Z</time>
      </trkpt>
      <trkpt lat="46.29705" lon="-0.72947">
        <ele>4</ele>
        <time>2023-10-29T19:29:45Z</time>
      </trkpt>
      <trkpt lat="46.29746" lon="-0.72926">
        <ele>5</ele>
        <time>2023-10-29T19:30:43Z</time>
      </trkpt>
      <trkpt lat="46.29788" lon="-0.72986">
        <ele>4</ele>
        <time>2023-10-29T19:32:02Z</time>
      </trkpt>
      <trkpt lat="46.29788" lon="-0.7314">
        <ele>5</ele>
        <time>2023-10-29T19:34:24Z</time>
      </trkpt>
      <trkpt lat="46.29796" lon="-0.73385">
        <ele>4</ele>
        <time>2023-10-29T19:38:10Z</time>
      </trkpt>
      <trkpt lat="46.29915" lon="-0.73625">
        <ele>4</ele>
        <time>2023-10-29T19:42:42Z</time>
      </trkpt>
      <trkpt lat="46.29796" lon="-0.73831">
        <ele>4</ele>
        <time>2023-10-29T19:46:50Z</time>
      </trkpt>
      <trkpt lat="46.2982" lon="-0.73908">
        <ele>4</ele>
        <time>2023-10-29T19:48:08Z</time>
      </trkpt>
      <trkpt lat="46.29725" lon="-0.74007">
        <ele>5</ele>
        <time>2023-10-29T19:50:44Z</time>
      </trkpt>
      <trkpt lat="46.29553" lon="-0.73827">
        <ele>5</ele>
        <time>2023-10-29T19:55:27Z</time>
      </trkpt>
      <trkpt lat="46.29485" lon="-0.73827">
        <ele>6</ele>
        <time>2023-10-29T19:56:58Z</time>
      </trkpt>
      <trkpt lat="46.29313" lon="-0.73578">
        <ele>5</ele>
        <time>2023-10-29T20:02:23Z</time>
      </trkpt>
      <trkpt lat="46.29195" lon="-0.73256">
        <ele>7</ele>
        <time>2023-10-29T20:07:59Z</time>
      </trkpt>
      <trkpt lat="46.29126" lon="-0.73196">
        <ele>5</ele>
        <time>2023-10-29T20:09:46Z</time>
      </trkpt>
      <trkpt lat="46.28741" lon="-0.72745">
        <ele>5</ele>
        <time>2023-10-29T20:20:47Z</time>
      </trkpt>
      <trkpt lat="46.2856" lon="-0.7257">
        <ele>5</ele>
        <time>2023-10-29T20:25:38Z</time>
      </trkpt>
      <trkpt lat="46.28477" lon="-0.72544">
        <ele>5</ele>
        <time>2023-10-29T20:27:31Z</time>
      </trkpt>
      <trkpt lat="46.28246" lon="-0.7211">
        <ele>3</ele>
        <time>2023-10-29T20:35:56Z</time>
      </trkpt>
      <trkpt lat="46.28154" lon="-0.72067">
        <ele>3</ele>
        <time>2023-10-29T20:38:05Z</time>
      </trkpt>
      <trkpt lat="46.2805" lon="-0.71784">
        <ele>4</ele>
        <time>2023-10-29T20:43:01Z</time>
      </trkpt>
      <trkpt lat="46.27875" lon="-0.7166">
        <ele>5</ele>
        <time>2023-10-29T20:47:21Z</time>
      </trkpt>
      <trkpt lat="46.27801" lon="-0.71716">
        <ele>5</ele>
        <time>2023-10-29T20:49:12Z</time>
      </trkpt>
      <trkpt lat="46.27391" lon="-0.71488">
        <ele>4</ele>
        <time>2023-10-29T20:58:59Z</time>
      </trkpt>
      <trkpt lat="46.27299" lon="-0.71269">
        <ele>6</ele>
        <time>2023-10-29T21:02:55Z</time>
      </trkpt>
      <trkpt lat="46.27507" lon="-0.71226">
        <ele>7</ele>
        <time>2023-10-29T21:07:35Z</time>
      </trkpt>
      <trkpt lat="46.27602" lon="-0.71132">
        <ele>7</ele>
        <time>2023-10-29T21:10:09Z</time>
      </trkpt>
      <trkpt lat="46.27658" lon="-0.71166">
        <ele>7</ele>
        <time>2023-10-29T21:11:30Z</time>
      </trkpt>
      <trkpt lat="46.27979" lon="-0.70952">
        <ele>6</ele>
        <time>2023-10-29T21:19:22Z</time>
      </trkpt>
      <trkpt lat="46.28059" lon="-0.70784">
        <ele>7</ele>
        <time>2023-10-29T21:22:30Z</time>
      </trkpt>
      <trkpt lat="46.28168" lon="-0.70776">
        <ele>5</ele>
        <time>2023-10-29T21:24:55Z</time>
      </trkpt>
      <trkpt lat="46.28278" lon="-0.70707">
        <ele>7</ele>
        <time>2023-10-29T21:27:35Z</time>
      </trkpt>
      <trkpt lat="46.28551" lon="-0.71196">
        <ele>5</ele>
        <time>2023-10-29T21:37:15Z</time>
      </trkpt>
      <trkpt lat="46.28833" lon="-0.71617">
        <ele>8</ele>
        <time>2023-10-29T21:46:16Z</time>
      </trkpt>
      <trkpt lat="46.28883" lon="-0.71608">
        <ele>7</ele>
        <time>2023-10-29T21:47:23Z</time>
      </trkpt>
      <trkpt lat="46.28919" lon="-0.71664">
        <ele>6</ele>
        <time>2023-10-29T21:48:34Z</time>
      </trkpt>
      <trkpt lat="46.28966" lon="-0.7163">
        <ele>5</ele>
        <time>2023-10-29T21:49:44Z</time>
      </trkpt>
      <trkpt lat="46.29141" lon="-0.7175">
        <ele>7</ele>
        <time>2023-10-29T21:54:02Z</time>
      </trkpt>
      <trkpt lat="46.29186" lon="-0.71711">
        <ele>7</ele>
        <time>2023-10-29T21:55:12Z</time>
      </trkpt>
      <trkpt lat="46.29248" lon="-0.71797">
        <ele>7</ele>
        <time>2023-10-29T21:57:07Z</time>
      </trkpt>
      <trkpt lat="46.29328" lon="-0.71724">
        <ele>5</ele>
        <time>2023-10-29T21:59:13Z</time>
      </trkpt>
      <trkpt lat="46.29367" lon="-0.71917">
        <ele>6</ele>
        <time>2023-10-29T22:02:18Z</time>
      </trkpt>
      <trkpt lat="46.29639" lon="-0.71621">
        <ele>5</ele>
        <time>2023-10-29T22:09:52Z</time>
      </trkpt>
      <trkpt lat="46.299" lon="-0.71239">
        <ele>10</ele>
        <time>2023-10-29T22:18:08Z</time>
      </trkpt>
      <trkpt lat="46.29933" lon="-0.71012">
        <ele>6</ele>
        <time>2023-10-29T22:21:42Z</time>
      </trkpt>
      <trkpt lat="46.29853" lon="-0.70694">
        <ele>5</ele>
        <time>2023-10-29T22:26:54Z</time>
      </trkpt>
      <trkpt lat="46.29957" lon="-0.70583">
        <ele>6</ele>
        <time>2023-10-29T22:29:46Z</time>
      </trkpt>
      <trkpt lat="46.29894" lon="-0.70419">
        <ele>7</ele>
        <time>2023-10-29T22:32:39Z</time>
      </trkpt>
      <trkpt lat="46.29924" lon="-0.70025">
        <ele>4</ele>
        <time>2023-10-29T22:38:45Z</time>
      </trkpt>
      <trkpt lat="46.30081" lon="-0.69874">
        <ele>4</ele>
        <time>2023-10-29T22:42:56Z</time>
      </trkpt>
      <trkpt lat="46.29779" lon="-0.69269">
        <ele>7</ele>
        <time>2023-10-29T22:54:24Z</time>
      </trkpt>
      <trkpt lat="46.30072" lon="-0.68866">
        <ele>8</ele>
        <time>2023-10-29T23:03:24Z</time>
      </trkpt>
      <trkpt lat="46.30164" lon="-0.68669">
        <ele>5</ele>
        <time>2023-10-29T23:07:03Z</time>
      </trkpt>
      <trkpt lat="46.30398" lon="-0.68458">
        <ele>5</ele>
        <time>2023-10-29T23:13:11Z</time>
      </trkpt>
      <trkpt lat="46.30372" lon="-0.68351">
        <ele>5</ele>
        <time>2023-10-29T23:14:55Z</time>
      </trkpt>
      <trkpt lat="46.30315" lon="-0.68295">
        <ele>4</ele>
        <time>2023-10-29T23:16:27Z</time>
      </trkpt>
      <trkpt lat="46.30215" lon="-0.68278">
        <ele>4</ele>
        <time>2023-10-29T23:18:42Z</time>
      </trkpt>
      <trkpt lat="46.30105" lon="-0.68381">
        <ele>6</ele>
        <time>2023-10-29T23:21:36Z</time>
      </trkpt>
      <trkpt lat="46.30105" lon="-0.68531">
        <ele>7</ele>
        <time>2023-10-29T23:23:55Z</time>
      </trkpt>
      <trkpt lat="46.30075" lon="-0.68613">
        <ele>10</ele>
        <time>2023-10-29T23:25:20Z</time>
      </trkpt>
      <trkpt lat="46.30063" lon="-0.68772">
        <ele>11</ele>
        <time>2023-10-29T23:27:48Z</time>
      </trkpt>
      <trkpt lat="46.29687" lon="-0.69158">
        <ele>11</ele>
        <time>2023-10-29T23:38:03Z</time>
      </trkpt>
    </trkseg>
  </trk>
</gpx>